Time;durP1;ratioP1;P1;durP2;ratioP2;P2;SDS_P1;SDS_P2;PMS_P1;PMS_P2;Temp;Humidity;BMP_temperature;BMP_pressure;BME280_temperature;BME280_humidity;BME280_pressure;Samples;Min_cycle;Max_cycle;Signal;HPM_P1;HPM_P2
2024/03/03 00:02:13;;;;;;;25.77;13.40;;;5.00;99.90;;;;;;5034562;28;20472;-75
2024/03/03 00:04:39;;;;;;;29.38;13.63;;;4.60;99.90;;;;;;5033278;28;20029;-76
2024/03/03 00:07:05;;;;;;;27.35;14.60;;;4.40;99.90;;;;;;5034534;28;20028;-75
2024/03/03 00:09:32;;;;;;;24.05;12.82;;;6.20;99.90;;;;;;5033091;28;20415;-76
2024/03/03 00:11:58;;;;;;;28.33;12.45;;;5.30;99.90;;;;;;5034355;28;20570;-76
2024/03/03 00:14:24;;;;;;;28.23;13.60;;;5.40;99.90;;;;;;5033116;28;20026;-76
2024/03/03 00:16:50;;;;;;;30.45;12.82;;;5.10;99.90;;;;;;5032894;28;20025;-76
2024/03/03 00:19:16;;;;;;;27.95;12.52;;;4.70;99.90;;;;;;5032857;28;20076;-76
2024/03/03 00:21:42;;;;;;;23.23;13.20;;;5.60;99.90;;;;;;5033030;28;20056;-76
2024/03/03 00:24:08;;;;;;;25.17;12.25;;;5.50;99.90;;;;;;5033496;28;20046;-76
2024/03/03 00:26:34;;;;;;;25.60;12.38;;;5.20;99.90;;;;;;5032807;28;20029;-76
2024/03/03 00:29:00;;;;;;;25.63;12.20;;;6.00;99.90;;;;;;5032787;28;20049;-76
2024/03/03 00:31:26;;;;;;;26.88;12.77;;;4.80;99.90;;;;;;5032788;28;20100;-75
2024/03/03 00:33:52;;;;;;;27.60;12.55;;;4.80;99.90;;;;;;5033027;28;20124;-76
2024/03/03 00:36:18;;;;;;;31.33;14.00;;;4.70;99.90;;;;;;5032595;28;20527;-75
2024/03/03 00:38:44;;;;;;;27.70;13.00;;;4.50;99.90;;;;;;5034910;28;20097;-77
2024/03/03 00:41:10;;;;;;;31.20;14.98;;;3.90;99.90;;;;;;5034005;28;20048;-76
2024/03/03 00:43:37;;;;;;;33.65;14.45;;;4.50;99.90;;;;;;5032386;28;20506;-76
2024/03/03 00:46:04;;;;;;;27.83;14.52;;;5.40;99.90;;;;;;5033896;28;20022;-76
2024/03/03 00:48:29;;;;;;;34.67;13.23;;;5.50;99.90;;;;;;5033323;28;20415;-76
2024/03/03 00:50:55;;;;;;;27.83;14.25;;;6.20;99.90;;;;;;5032290;28;20022;-76
2024/03/03 00:53:22;;;;;;;24.52;12.02;;;4.50;99.90;;;;;;5033735;28;20032;-76
2024/03/03 00:55:49;;;;;;;25.90;12.15;;;6.90;99.90;;;;;;5032247;28;20053;-76
2024/03/03 00:58:15;;;;;;;30.52;14.15;;;6.00;99.90;;;;;;5032005;28;20036;-77
2024/03/03 01:00:41;;;;;;;28.50;12.52;;;6.80;99.90;;;;;;5033500;28;20014;-75
2024/03/03 01:03:08;;;;;;;24.70;11.48;;;6.20;99.90;;;;;;5032159;28;20391;-76
2024/03/03 01:05:34;;;;;;;25.90;12.30;;;5.00;99.90;;;;;;5033281;28;20425;-76
2024/03/03 01:07:59;;;;;;;17.23;10.00;;;5.60;99.90;;;;;;5032082;28;20116;-76
2024/03/03 01:10:25;;;;;;;26.02;12.80;;;5.10;99.90;;;;;;5032013;28;20037;-76
2024/03/03 01:12:52;;;;;;;20.65;12.77;;;4.90;99.90;;;;;;5033093;28;20038;-76
2024/03/03 01:15:18;;;;;;;27.35;12.00;;;4.70;99.90;;;;;;5031847;28;20029;-76
2024/03/03 01:17:43;;;;;;;26.60;13.30;;;5.80;99.90;;;;;;5033090;28;20029;-76
2024/03/03 01:20:10;;;;;;;26.27;11.75;;;5.10;99.90;;;;;;5033126;28;20025;-75
2024/03/03 01:22:39;;;;;;;33.58;15.20;;;5.60;99.90;;;;;;5031717;28;20064;-76
2024/03/03 01:25:07;;;;;;;23.10;11.90;;;4.50;99.90;;;;;;5031820;28;20060;-76
2024/03/03 01:27:33;;;;;;;32.38;11.75;;;4.70;99.90;;;;;;5031769;28;20064;-76
2024/03/03 01:29:59;;;;;;;31.58;12.80;;;4.40;99.90;;;;;;5035531;28;20033;-76
2024/03/03 01:32:25;;;;;;;28.73;11.68;;;6.40;99.90;;;;;;5032248;28;20036;-75
2024/03/03 01:34:51;;;;;;;29.05;12.02;;;6.20;99.90;;;;;;5032783;28;20025;-76
2024/03/03 01:37:19;;;;;;;24.90;10.85;;;4.40;99.90;;;;;;5032701;28;20033;-76
2024/03/03 01:39:48;;;;;;;27.58;12.98;;;5.10;99.90;;;;;;5031344;28;20018;-76
2024/03/03 01:42:14;;;;;;;44.67;15.55;;;4.50;99.90;;;;;;5032491;28;20097;-76
2024/03/03 01:44:43;;;;;;;34.85;14.93;;;4.50;99.90;;;;;;5031307;28;20029;-76
2024/03/03 01:47:09;;;;;;;32.33;13.82;;;4.80;99.90;;;;;;5031355;28;20029;-75
2024/03/03 01:49:37;;;;;;;40.90;15.80;;;4.40;99.90;;;;;;5032897;28;20060;-76
2024/03/03 01:52:05;;;;;;;35.60;14.50;;;4.40;99.90;;;;;;5033798;28;20022;-75
2024/03/03 01:54:34;;;;;;;32.53;13.02;;;5.30;99.90;;;;;;5031244;28;20021;-75
2024/03/03 01:57:02;;;;;;;26.98;12.43;;;3.60;99.90;;;;;;5031056;28;20026;-76
2024/03/03 01:59:28;;;;;;;38.35;11.93;;;5.60;99.90;;;;;;5030999;28;20615;-76
2024/03/03 02:01:57;;;;;;;43.13;12.77;;;5.50;99.90;;;;;;5031175;28;20100;-76
2024/03/03 02:04:23;;;;;;;34.05;13.63;;;4.50;99.90;;;;;;5031017;28;20071;-76
2024/03/03 02:06:51;;;;;;;37.88;13.32;;;3.90;99.90;;;;;;5032377;28;20591;-76
2024/03/03 02:09:17;;;;;;;30.92;13.15;;;4.40;99.90;;;;;;5031097;28;20052;-76
2024/03/03 02:11:46;;;;;;;33.40;16.55;;;3.40;99.90;;;;;;5032282;28;20029;-75
2024/03/03 02:14:12;;;;;;;40.17;14.50;;;4.60;99.90;;;;;;5032292;28;20052;-76
2024/03/03 02:16:38;;;;;;;38.67;13.02;;;4.30;99.90;;;;;;5032063;28;20021;-77
2024/03/03 02:19:04;;;;;;;24.75;13.23;;;4.30;99.90;;;;;;5030938;28;20093;-77
2024/03/03 02:21:30;;;;;;;29.77;12.70;;;4.50;99.90;;;;;;5030910;28;20063;-76
2024/03/03 02:23:55;;;;;;;34.80;12.88;;;4.30;99.90;;;;;;5032131;28;20028;-76
2024/03/03 02:26:23;;;;;;;31.80;13.93;;;4.30;99.90;;;;;;5032116;28;20021;-76
2024/03/03 02:28:53;;;;;;;27.52;12.57;;;4.30;99.90;;;;;;5030664;28;20037;-76
2024/03/03 02:31:19;;;;;;;28.25;12.68;;;4.30;99.90;;;;;;5030984;28;20029;-75
2024/03/03 02:33:45;;;;;;;28.77;12.45;;;4.20;99.90;;;;;;5030888;28;20025;-76
2024/03/03 02:36:12;;;;;;;31.27;13.38;;;4.10;99.90;;;;;;5030768;28;20022;-76
2024/03/03 02:38:42;;;;;;;33.78;13.82;;;4.10;99.90;;;;;;5032182;28;20434;-76
2024/03/03 02:41:08;;;;;;;44.33;14.15;;;4.10;99.90;;;;;;5031948;28;20025;-76
2024/03/03 02:43:34;;;;;;;25.50;13.98;;;4.20;99.90;;;;;;5032106;28;20080;-75
2024/03/03 02:46:00;;;;;;;39.35;14.02;;;4.10;99.90;;;;;;5030676;28;20472;-76
2024/03/03 02:48:25;;;;;;;28.58;13.88;;;4.10;99.90;;;;;;5035385;28;20498;-76
2024/03/03 02:50:51;;;;;;;31.13;14.43;;;4.10;99.90;;;;;;5034293;28;20476;-76
2024/03/03 02:53:17;;;;;;;33.05;12.60;;;4.10;99.90;;;;;;5032122;28;20059;-77
2024/03/03 02:55:42;;;;;;;22.80;13.30;;;4.00;99.90;;;;;;5035657;28;20021;-76
2024/03/03 02:58:08;;;;;;;24.73;13.05;;;4.00;99.90;;;;;;5035584;28;20071;-76
2024/03/03 03:00:34;;;;;;;36.33;14.75;;;4.00;99.90;;;;;;5035521;28;20036;-76
2024/03/03 03:03:00;;;;;;;38.42;13.95;;;4.00;99.90;;;;;;5035897;28;20496;-76
2024/03/03 03:05:25;;;;;;;35.08;13.20;;;3.90;99.90;;;;;;5037593;28;20034;-76
2024/03/03 03:07:51;;;;;;;28.67;14.07;;;3.90;99.90;;;;;;5037123;28;20025;-76
2024/03/03 03:10:16;;;;;;;23.20;12.32;;;3.90;99.90;;;;;;5035347;28;20048;-75
2024/03/03 03:12:42;;;;;;;25.77;12.70;;;3.80;99.90;;;;;;5034103;28;20049;-76
2024/03/03 03:15:08;;;;;;;30.52;11.93;;;3.80;99.90;;;;;;5034053;28;20029;-76
2024/03/03 03:17:33;;;;;;;37.10;15.32;;;3.70;99.90;;;;;;5034020;28;20400;-76
2024/03/03 03:19:59;;;;;;;30.52;11.18;;;3.70;99.90;;;;;;5033723;28;20125;-76
2024/03/03 03:22:25;;;;;;;28.42;12.60;;;3.70;99.90;;;;;;5033807;28;20071;-76
2024/03/03 03:24:50;;;;;;;43.47;12.27;;;3.70;99.90;;;;;;5035217;28;20028;-76
2024/03/03 03:27:16;;;;;;;29.20;11.77;;;3.60;99.90;;;;;;5033853;28;20036;-76
2024/03/03 03:29:42;;;;;;;31.77;11.80;;;3.60;99.90;;;;;;5034941;28;20028;-76
2024/03/03 03:32:07;;;;;;;32.70;11.40;;;3.50;99.90;;;;;;5033614;28;20395;-76
2024/03/03 03:34:33;;;;;;;23.15;10.80;;;3.60;99.90;;;;;;5035027;28;20488;-77
2024/03/03 03:36:58;;;;;;;118.57;47.22;;;3.80;99.90;;;;;;5033688;28;20116;-75
2024/03/03 03:39:24;;;;;;;34.78;11.63;;;3.60;99.90;;;;;;5033585;28;20116;-75
2024/03/03 03:41:50;;;;;;;27.20;12.40;;;3.60;99.90;;;;;;5033618;28;20025;-75
2024/03/03 03:44:18;;;;;;;21.95;11.52;;;3.70;99.90;;;;;;5033561;28;20025;-76
2024/03/03 03:46:44;;;;;;;18.88;11.35;;;3.60;99.90;;;;;;5034720;28;20075;-76
2024/03/03 03:49:11;;;;;;;25.60;11.40;;;3.60;99.90;;;;;;5034465;28;20045;-77
2024/03/03 03:51:38;;;;;;;25.27;10.90;;;3.50;99.90;;;;;;5034570;28;20026;-76
2024/03/03 03:54:04;;;;;;;24.75;11.93;;;3.50;99.90;;;;;;5033443;28;20029;-76
2024/03/03 03:56:36;;;;;;;19.38;10.63;;;3.40;99.90;;;;;;5034543;28;20025;-77
2024/03/03 03:59:03;;;;;;;21.92;10.95;;;3.30;99.90;;;;;;5033253;28;20030;-75
2024/03/03 04:01:29;;;;;;;24.50;10.48;;;3.30;99.90;;;;;;5033404;28;20021;-76
2024/03/03 04:03:55;;;;;;;26.98;11.40;;;3.20;99.90;;;;;;5033250;28;20028;-75
2024/03/03 04:06:23;;;;;;;23.60;11.70;;;3.20;99.90;;;;;;5033175;28;20029;-76
2024/03/03 04:08:48;;;;;;;19.77;10.13;;;3.20;99.90;;;;;;5033102;28;20376;-76
2024/03/03 04:11:14;;;;;;;24.15;10.65;;;3.10;99.90;;;;;;5034224;28;20082;-76
2024/03/03 04:13:40;;;;;;;20.70;9.10;;;3.10;99.90;;;;;;5034293;28;20029;-76
2024/03/03 04:16:06;;;;;;;25.95;10.57;;;3.10;99.90;;;;;;5037524;28;20044;-78
2024/03/03 04:18:33;;;;;;;21.02;10.18;;;3.00;99.90;;;;;;5033984;28;20040;-76
2024/03/03 04:20:59;;;;;;;42.42;11.27;;;3.10;99.90;;;;;;5032886;28;20117;-75
2024/03/03 04:23:24;;;;;;;43.35;11.25;;;3.00;99.90;;;;;;5034102;28;20079;-76
2024/03/03 04:25:50;;;;;;;33.42;12.20;;;2.90;99.90;;;;;;5032884;28;20030;-75
2024/03/03 04:28:16;;;;;;;34.75;12.43;;;2.90;99.90;;;;;;5034055;28;20025;-76
2024/03/03 04:30:41;;;;;;;21.27;10.90;;;2.90;99.90;;;;;;5033851;28;20079;-75
2024/03/03 04:33:07;;;;;;;47.53;11.32;;;2.90;99.90;;;;;;5033962;28;20022;-75
2024/03/03 04:35:33;;;;;;;33.45;12.73;;;3.00;99.90;;;;;;5033846;28;20026;-76
2024/03/03 04:37:59;;;;;;;27.52;12.13;;;2.90;99.90;;;;;;5033793;28;20387;-76
2024/03/03 04:40:25;;;;;;;40.25;11.25;;;2.90;99.90;;;;;;5033836;28;20473;-76
2024/03/03 04:42:50;;;;;;;24.60;10.38;;;2.80;99.90;;;;;;5033602;28;20053;-76
2024/03/03 04:45:16;;;;;;;49.90;12.05;;;2.90;99.90;;;;;;5033733;28;20075;-76
2024/03/03 04:47:42;;;;;;;27.13;11.43;;;2.90;99.90;;;;;;5032438;28;20116;-76
2024/03/03 04:50:08;;;;;;;27.08;11.40;;;2.90;99.90;;;;;;5065437;22;20048;-76
2024/03/03 04:52:40;;;;;;;24.48;11.18;;;2.90;99.90;;;;;;5052161;28;20498;-76
2024/03/03 04:55:06;;;;;;;24.65;9.77;;;3.00;99.90;;;;;;5052703;28;20021;-76
2024/03/03 04:57:33;;;;;;;50.90;10.35;;;3.00;99.90;;;;;;5051525;28;20060;-77
2024/03/03 04:59:59;;;;;;;41.72;9.88;;;3.20;99.90;;;;;;5052988;28;20021;-76
2024/03/03 05:02:25;;;;;;;15.15;8.73;;;3.20;99.90;;;;;;5052506;28;20021;-77
2024/03/03 05:04:51;;;;;;;44.47;10.25;;;3.20;99.90;;;;;;5051486;28;20017;-76
2024/03/03 05:07:17;;;;;;;24.63;10.57;;;3.20;99.90;;;;;;5052901;28;20029;-76
2024/03/03 05:09:43;;;;;;;45.15;11.32;;;3.20;99.90;;;;;;5051988;28;20021;-77
2024/03/03 05:12:08;;;;;;;32.50;9.45;;;3.20;99.90;;;;;;5051011;28;20032;-76
2024/03/03 05:14:34;;;;;;;36.35;9.80;;;3.30;99.90;;;;;;5052442;28;20025;-76
2024/03/03 05:17:01;;;;;;;40.05;11.98;;;3.30;99.90;;;;;;5052331;28;20078;-76
2024/03/03 05:19:27;;;;;;;34.25;10.32;;;3.30;99.90;;;;;;5050847;28;20082;-77
2024/03/03 05:21:53;;;;;;;19.50;8.50;;;3.30;99.90;;;;;;5051904;28;20094;-76
2024/03/03 05:24:19;;;;;;;35.25;10.10;;;3.30;99.90;;;;;;5052033;28;20025;-76
2024/03/03 05:26:45;;;;;;;37.47;9.65;;;3.30;99.90;;;;;;5051059;28;20505;-78
2024/03/03 05:29:12;;;;;;;23.63;9.65;;;3.30;99.90;;;;;;5052154;28;20059;-76
2024/03/03 05:31:42;;;;;;;34.03;9.57;;;3.20;99.90;;;;;;5050715;28;20033;-76
2024/03/03 05:34:12;;;;;;;33.05;10.05;;;3.20;99.90;;;;;;5052233;28;20025;-77
2024/03/03 05:36:45;;;;;;;22.55;9.68;;;3.20;99.90;;;;;;5052075;28;20502;-76
2024/03/03 05:39:12;;;;;;;18.33;8.45;;;3.20;99.90;;;;;;5047547;28;20021;-75
2024/03/03 05:41:39;;;;;;;16.10;9.27;;;3.20;99.90;;;;;;5049538;28;20039;-76
2024/03/03 05:44:04;;;;;;;12.57;7.55;;;3.20;99.90;;;;;;5049180;28;20491;-75
2024/03/03 05:46:32;;;;;;;20.08;10.07;;;4.10;99.90;;;;;;5064765;28;20044;-77
2024/03/03 05:48:57;;;;;;;20.33;10.35;;;3.90;99.90;;;;;;5053149;28;20029;-77
2024/03/03 05:51:23;;;;;;;15.63;9.88;;;3.70;99.90;;;;;;5051560;28;20087;-77
2024/03/03 05:53:49;;;;;;;32.90;10.48;;;3.40;99.90;;;;;;5052015;28;20418;-77
2024/03/03 05:56:18;;;;;;;18.13;7.95;;;3.30;99.90;;;;;;5051848;28;20364;-77
2024/03/03 05:58:44;;;;;;;20.10;9.52;;;3.10;99.90;;;;;;5051837;28;20517;-77
2024/03/03 06:01:10;;;;;;;32.88;10.45;;;3.00;99.90;;;;;;5043530;28;20021;-77
2024/03/03 06:03:37;;;;;;;22.02;10.07;;;3.00;99.90;;;;;;5050887;28;20537;-76
2024/03/03 06:06:04;;;;;;;28.10;9.68;;;3.00;99.90;;;;;;5052173;28;20021;-76
2024/03/03 06:08:33;;;;;;;19.80;9.35;;;2.90;99.90;;;;;;5051902;28;20487;-78
2024/03/03 06:10:59;;;;;;;25.55;10.38;;;3.00;99.90;;;;;;5050423;28;20029;-77
2024/03/03 06:13:25;;;;;;;30.20;10.20;;;3.00;99.90;;;;;;5051970;28;20633;-77
2024/03/03 06:15:51;;;;;;;32.22;12.25;;;3.00;99.90;;;;;;5051795;28;20032;-78
2024/03/03 06:18:16;;;;;;;34.78;12.20;;;3.10;99.90;;;;;;5050542;28;20032;-76
2024/03/03 06:20:42;;;;;;;31.10;10.63;;;3.10;99.90;;;;;;5051758;28;20024;-77
2024/03/03 06:23:08;;;;;;;30.38;10.07;;;3.20;99.90;;;;;;5055698;28;20021;-77
2024/03/03 06:25:34;;;;;;;22.58;9.90;;;3.30;99.90;;;;;;5056181;28;20112;-77
2024/03/03 06:27:59;;;;;;;21.27;8.52;;;3.30;99.90;;;;;;5054267;28;20472;-77
2024/03/03 06:30:25;;;;;;;20.38;8.30;;;3.40;99.90;;;;;;5053318;28;20074;-77
2024/03/03 06:32:51;;;;;;;24.52;8.18;;;3.60;99.90;;;;;;5053331;28;20451;-77
2024/03/03 06:35:17;;;;;;;16.63;10.50;;;3.50;99.90;;;;;;5055248;28;20025;-77
2024/03/03 06:37:44;;;;;;;16.52;8.82;;;3.60;99.90;;;;;;5049501;28;20034;-77
2024/03/03 06:40:10;;;;;;;28.77;10.18;;;3.70;99.90;;;;;;5055243;28;20067;-77
2024/03/03 06:42:41;;;;;;;23.00;9.48;;;3.80;99.90;;;;;;5055505;28;20021;-76
2024/03/03 06:45:07;;;;;;;20.33;9.07;;;3.80;99.90;;;;;;5053795;28;20096;-77
2024/03/03 06:47:33;;;;;;;19.77;8.88;;;3.70;99.90;;;;;;5055376;28;20025;-76
2024/03/03 06:49:59;;;;;;;17.85;8.80;;;3.60;99.90;;;;;;5055109;28;20040;-77
2024/03/03 06:52:26;;;;;;;14.93;8.23;;;3.70;99.90;;;;;;5055105;28;20032;-76
2024/03/03 06:54:52;;;;;;;18.70;9.30;;;3.70;99.90;;;;;;5055379;28;20029;-76
2024/03/03 06:57:17;;;;;;;17.20;9.00;;;3.70;99.90;;;;;;5055324;28;20399;-77
2024/03/03 06:59:43;;;;;;;15.68;9.00;;;3.90;99.90;;;;;;5053826;28;20505;-77
2024/03/03 07:02:09;;;;;;;19.50;9.05;;;3.90;99.90;;;;;;5054266;28;20468;-78
2024/03/03 07:04:35;;;;;;;14.63;8.63;;;4.10;99.90;;;;;;5054031;28;20056;-76
2024/03/03 07:07:02;;;;;;;24.05;10.25;;;4.10;99.90;;;;;;5054337;28;20426;-78
2024/03/03 07:09:28;;;;;;;34.65;8.98;;;4.20;99.90;;;;;;5055122;28;20477;-77
2024/03/03 07:11:54;;;;;;;24.25;9.80;;;4.30;99.90;;;;;;5055114;28;20029;-76
2024/03/03 07:14:21;;;;;;;24.25;9.65;;;4.40;99.90;;;;;;5053757;28;20035;-76
2024/03/03 07:16:48;;;;;;;17.05;8.27;;;4.40;99.90;;;;;;5048404;28;20025;-77
2024/03/03 07:19:14;;;;;;;22.65;8.10;;;4.50;99.90;;;;;;5041787;28;20514;-76
2024/03/03 07:21:40;;;;;;;18.40;9.15;;;4.60;99.90;;;;;;5055739;28;20108;-76
2024/03/03 07:24:06;;;;;;;18.95;8.98;;;4.70;99.90;;;;;;5055466;28;20071;-76
2024/03/03 07:26:32;;;;;;;20.35;9.35;;;4.80;99.90;;;;;;5056047;28;20029;-76
2024/03/03 07:28:58;;;;;;;17.17;8.75;;;4.90;99.90;;;;;;5056455;28;20025;-76
2024/03/03 07:31:23;;;;;;;16.40;9.40;;;5.10;99.90;;;;;;5056327;28;20479;-77
2024/03/03 07:33:49;;;;;;;12.68;8.18;;;5.10;99.90;;;;;;5055611;28;20032;-77
2024/03/03 07:36:14;;;;;;;14.68;8.75;;;5.10;99.90;;;;;;5056827;28;20025;-76
2024/03/03 07:38:40;;;;;;;10.27;7.15;;;5.20;99.90;;;;;;5057174;28;20032;-76
2024/03/03 07:41:06;;;;;;;13.32;8.18;;;5.30;99.90;;;;;;5055105;28;20021;-77
2024/03/03 07:43:31;;;;;;;14.45;10.25;;;5.50;99.90;;;;;;5055867;28;20128;-77
2024/03/03 07:45:58;;;;;;;13.05;8.35;;;5.60;99.90;;;;;;5055019;28;20558;-77
2024/03/03 07:48:24;;;;;;;14.90;8.90;;;5.70;99.90;;;;;;5055564;28;20490;-77
2024/03/03 07:50:50;;;;;;;14.48;9.20;;;5.80;99.90;;;;;;5055098;28;20063;-76
2024/03/03 07:53:16;;;;;;;16.48;9.10;;;5.90;99.90;;;;;;5056013;28;20023;-76
2024/03/03 07:55:42;;;;;;;15.40;9.65;;;6.00;99.90;;;;;;5054886;28;20029;-76
2024/03/03 07:58:08;;;;;;;14.10;8.82;;;6.20;99.90;;;;;;5055972;28;20106;-75
2024/03/03 08:00:34;;;;;;;16.77;9.98;;;6.30;99.90;;;;;;5054743;28;20461;-75
2024/03/03 08:03:04;;;;;;;18.00;9.73;;;6.40;99.90;;;;;;5055415;28;20025;-76
2024/03/03 08:05:32;;;;;;;18.67;11.55;;;6.60;99.90;;;;;;5055731;28;20021;-76
2024/03/03 08:07:58;;;;;;;22.33;11.63;;;6.70;99.90;;;;;;5049127;28;20030;-78
2024/03/03 08:10:24;;;;;;;18.38;10.35;;;6.80;99.90;;;;;;5053290;28;20104;-76
2024/03/03 08:12:49;;;;;;;14.43;8.98;;;6.90;99.90;;;;;;5049511;28;20071;-77
2024/03/03 08:15:15;;;;;;;16.55;9.70;;;7.20;99.90;;;;;;5047687;28;20104;-76
2024/03/03 08:17:41;;;;;;;13.30;7.68;;;7.30;99.90;;;;;;5050749;28;20024;-78
2024/03/03 08:20:07;;;;;;;19.55;10.68;;;7.50;99.90;;;;;;5054048;28;20021;-76
2024/03/03 08:22:33;;;;;;;16.80;10.15;;;7.70;99.90;;;;;;5052528;28;20052;-76
2024/03/03 08:24:59;;;;;;;15.65;9.45;;;7.70;99.90;;;;;;5052801;28;20052;-75
2024/03/03 08:27:25;;;;;;;15.20;9.15;;;7.90;99.90;;;;;;5050739;28;20116;-77
2024/03/03 08:29:51;;;;;;;15.77;9.88;;;8.10;99.90;;;;;;5044970;28;20117;-77
2024/03/03 08:32:16;;;;;;;15.13;8.90;;;9.20;99.90;;;;;;5053111;28;20024;-77
2024/03/03 08:34:42;;;;;;;16.40;8.70;;;9.10;99.90;;;;;;5051269;28;20087;-77
2024/03/03 08:37:08;;;;;;;13.93;7.75;;;9.10;99.90;;;;;;5052278;28;20021;-77
2024/03/03 08:39:34;;;;;;;11.75;7.35;;;9.10;99.90;;;;;;5053531;28;20029;-77
2024/03/03 08:42:00;;;;;;;11.55;6.18;;;9.10;99.90;;;;;;5051938;28;20028;-78
2024/03/03 08:44:26;;;;;;;7.22;5.28;;;9.30;99.90;;;;;;5051575;28;20025;-75
2024/03/03 08:46:52;;;;;;;10.68;5.88;;;9.50;99.90;;;;;;5052240;28;20024;-76
2024/03/03 08:49:17;;;;;;;7.05;4.50;;;9.70;99.90;;;;;;5053156;28;20028;-76
2024/03/03 08:51:43;;;;;;;7.38;5.13;;;9.80;99.90;;;;;;5053469;28;20484;-76
2024/03/03 08:54:09;;;;;;;8.13;4.18;;;9.90;99.90;;;;;;5052331;28;20029;-76
2024/03/03 08:56:34;;;;;;;2.70;2.30;;;10.10;99.90;;;;;;5053466;28;20074;-77
2024/03/03 08:59:00;;;;;;;3.22;2.53;;;10.40;99.90;;;;;;5053545;28;20029;-77
2024/03/03 09:01:25;;;;;;;3.88;2.22;;;10.60;99.90;;;;;;5053441;28;20032;-76
2024/03/03 09:03:51;;;;;;;2.88;2.60;;;10.70;99.90;;;;;;5053644;28;20021;-76
2024/03/03 09:06:17;;;;;;;4.57;2.47;;;11.00;99.90;;;;;;5053466;28;20096;-76
2024/03/03 09:08:44;;;;;;;3.38;2.97;;;11.10;99.90;;;;;;5053588;28;20025;-77
2024/03/03 09:11:12;;;;;;;3.45;2.45;;;11.30;99.90;;;;;;5052993;28;20021;-77
2024/03/03 09:13:38;;;;;;;2.38;2.03;;;11.50;99.90;;;;;;5053128;28;20021;-77
2024/03/03 09:16:04;;;;;;;3.60;2.50;;;11.60;99.90;;;;;;5053145;28;20044;-77
2024/03/03 09:18:30;;;;;;;4.15;2.38;;;11.70;99.90;;;;;;5052676;28;20067;-75
2024/03/03 09:20:55;;;;;;;3.80;2.35;;;11.90;99.90;;;;;;5052926;28;20025;-76
2024/03/03 09:23:21;;;;;;;2.60;2.00;;;12.00;99.90;;;;;;5053225;28;20029;-74
2024/03/03 09:25:47;;;;;;;2.63;1.98;;;12.10;99.90;;;;;;5050357;28;20036;-75
2024/03/03 09:28:13;;;;;;;2.97;1.85;;;12.20;99.90;;;;;;5048702;28;20021;-76
2024/03/03 09:30:39;;;;;;;2.20;1.90;;;12.40;99.90;;;;;;5047075;28;20029;-76
2024/03/03 09:33:04;;;;;;;2.33;2.10;;;12.60;99.90;;;;;;5051811;28;20509;-78
2024/03/03 09:35:30;;;;;;;1.48;1.38;;;12.70;99.90;;;;;;5052028;28;20037;-74
2024/03/03 09:37:56;;;;;;;2.75;1.90;;;12.70;99.90;;;;;;5047405;28;20120;-74
2024/03/03 09:40:22;;;;;;;5.18;1.70;;;12.90;99.90;;;;;;5045562;28;20029;-77
2024/03/03 09:42:49;;;;;;;1.85;1.10;;;13.00;99.90;;;;;;5052741;28;20099;-77
2024/03/03 09:45:19;;;;;;;2.60;1.30;;;13.20;99.90;;;;;;5034832;28;20021;-79
2024/03/03 09:47:46;;;;;;;1.27;1.15;;;13.30;99.90;;;;;;5054599;28;20036;-78
2024/03/03 09:50:14;;;;;;;3.25;0.93;;;13.30;99.90;;;;;;5048827;28;20051;-77
2024/03/03 09:52:44;;;;;;;1.17;0.98;;;13.40;99.90;;;;;;5043634;28;20033;-78
2024/03/03 09:55:11;;;;;;;1.15;0.95;;;13.50;99.90;;;;;;5046963;28;20037;-79
2024/03/03 09:57:40;;;;;;;0.82;0.80;;;13.70;99.90;;;;;;5047755;28;20104;-78
2024/03/03 10:00:07;;;;;;;3.03;1.20;;;13.70;99.80;;;;;;5049951;28;20060;-78
2024/03/03 10:02:35;;;;;;;1.20;1.10;;;13.80;98.90;;;;;;5049742;28;20108;-78
2024/03/03 10:05:04;;;;;;;2.53;1.10;;;13.90;99.70;;;;;;5054222;28;20028;-81
2024/03/03 10:07:40;;;;;;;1.55;0.80;;;14.10;97.40;;;;;;5058003;28;20499;-78
2024/03/03 10:10:08;;;;;;;1.48;1.00;;;14.10;95.90;;;;;;5049943;28;20029;-76
2024/03/03 10:12:35;;;;;;;1.85;0.65;;;14.30;95.60;;;;;;5052285;28;20051;-77
2024/03/03 10:15:04;;;;;;;1.23;0.65;;;14.30;94.40;;;;;;5054666;28;20025;-79
2024/03/03 10:17:30;;;;;;;1.42;0.90;;;14.40;94.10;;;;;;5043509;28;20121;-80
2024/03/03 10:20:05;;;;;;;1.23;0.60;;;14.40;94.50;;;;;;5053023;28;20056;-79
2024/03/03 10:22:32;;;;;;;1.95;1.30;;;14.60;93.00;;;;;;5045529;28;20028;-83
2024/03/03 10:25:10;;;;;;;0.68;0.55;;;14.70;93.80;;;;;;5040566;28;20035;-80
2024/03/03 10:27:46;;;;;;;27.15;13.88;;;14.80;92.20;;;;;;5058938;28;20116;-79
2024/03/03 10:30:15;;;;;;;2.92;2.15;;;14.80;93.00;;;;;;5057797;28;20025;-77
2024/03/03 10:32:46;;;;;;;9.75;5.43;;;14.90;92.20;;;;;;5054946;28;20028;-79
2024/03/03 10:35:14;;;;;;;4.88;1.48;;;14.80;91.30;;;;;;5055443;28;20029;-77
2024/03/03 10:38:01;;;;;;;2.65;2.40;;;14.70;91.00;;;;;;5056221;28;20487;-77
2024/03/03 10:40:31;;;;;;;2.22;1.27;;;14.80;91.10;;;;;;5054103;28;20112;-76
2024/03/03 10:42:57;;;;;;;2.35;0.90;;;14.90;90.30;;;;;;5054003;28;20017;-78
2024/03/03 10:45:23;;;;;;;2.90;1.02;;;15.00;89.40;;;;;;5054489;28;20434;-77
2024/03/03 10:47:50;;;;;;;0.50;0.50;;;15.00;87.70;;;;;;5054512;28;20029;-76
2024/03/03 10:50:17;;;;;;;1.70;1.17;;;15.10;87.00;;;;;;5055998;28;20037;-77
2024/03/03 10:52:43;;;;;;;1.50;0.70;;;15.30;88.20;;;;;;5057085;28;20422;-81
2024/03/03 10:55:11;;;;;;;4.38;0.75;;;15.30;87.10;;;;;;5056840;28;20025;-79
2024/03/03 10:57:38;;;;;;;3.13;1.10;;;15.30;88.10;;;;;;5054943;28;20104;-80
2024/03/03 11:00:06;;;;;;;4.30;1.30;;;15.30;87.10;;;;;;5055294;28;20043;-78
2024/03/03 11:02:34;;;;;;;2.05;1.10;;;15.30;86.80;;;;;;5057318;28;20013;-80
2024/03/03 11:05:04;;;;;;;0.70;0.50;;;15.40;84.20;;;;;;5056011;28;20021;-77
2024/03/03 11:07:30;;;;;;;4.30;0.65;;;15.50;83.90;;;;;;5055472;28;20104;-77
2024/03/03 11:09:57;;;;;;;0.60;0.60;;;15.40;83.70;;;;;;5059498;28;20407;-80
2024/03/03 11:12:26;;;;;;;1.27;0.65;;;15.60;84.70;;;;;;5060441;28;20021;-77
2024/03/03 11:14:55;;;;;;;0.40;0.40;;;15.80;80.50;;;;;;5061017;28;20021;-77
2024/03/03 11:17:25;;;;;;;1.52;0.80;;;15.90;80.20;;;;;;5060843;28;20087;-80
2024/03/03 11:19:51;;;;;;;0.95;0.70;;;16.10;80.70;;;;;;5059100;28;20025;-77
2024/03/03 11:22:21;;;;;;;3.40;0.57;;;16.20;80.40;;;;;;5057743;28;20111;-78
2024/03/03 11:24:58;;;;;;;0.38;0.38;;;16.30;80.30;;;;;;5057824;28;20067;-80
2024/03/03 11:27:31;;;;;;;3.88;0.77;;;16.40;81.50;;;;;;5058410;28;20033;-77
2024/03/03 11:29:58;;;;;;;1.45;0.47;;;16.30;75.70;;;;;;5056365;28;20025;-78
2024/03/03 11:32:26;;;;;;;0.60;0.40;;;16.30;74.40;;;;;;5056919;28;20027;-78
2024/03/03 11:34:54;;;;;;;0.70;0.60;;;16.20;73.60;;;;;;5056145;28;20049;-80
2024/03/03 11:37:20;;;;;;;0.30;0.25;;;16.20;66.60;;;;;;5056714;28;20063;-80
2024/03/03 11:39:58;;;;;;;0.80;0.25;;;16.30;65.50;;;;;;5057511;28;20029;-80
2024/03/03 11:42:35;;;;;;;0.40;0.40;;;16.50;65.40;;;;;;5056625;28;20025;-77
2024/03/03 11:45:06;;;;;;;0.17;0.17;;;16.60;62.80;;;;;;5058947;28;20074;-78
2024/03/03 11:47:36;;;;;;;1.17;0.35;;;16.70;60.90;;;;;;5058537;28;20025;-80
2024/03/03 11:50:26;;;;;;;0.55;0.40;;;16.50;61.40;;;;;;5060124;28;20493;-80
2024/03/03 11:52:52;;;;;;;0.17;0.10;;;16.50;61.70;;;;;;5061749;28;20025;-79
2024/03/03 11:55:26;;;;;;;0.47;0.22;;;16.50;58.80;;;;;;5059526;28;20021;-80
2024/03/03 11:57:55;;;;;;;0.47;0.25;;;16.50;60.10;;;;;;5057941;28;20032;-78
2024/03/03 12:00:26;;;;;;;0.20;0.20;;;16.60;59.40;;;;;;5057408;28;20023;-81
2024/03/03 12:02:53;;;;;;;0.20;0.15;;;16.50;57.60;;;;;;5056550;28;20024;-76
2024/03/03 12:05:20;;;;;;;0.80;0.77;;;16.50;58.60;;;;;;5056496;28;20064;-81
2024/03/03 12:07:48;;;;;;;0.47;0.30;;;16.40;57.80;;;;;;5056684;28;20024;-79
2024/03/03 12:10:22;;;;;;;0.38;0.30;;;16.50;58.80;;;;;;5051389;28;20060;-77
2024/03/03 12:12:49;;;;;;;0.13;0.13;;;16.50;58.50;;;;;;5051127;28;20041;-79
2024/03/03 12:15:20;;;;;;;0.35;0.30;;;16.60;56.60;;;;;;5053916;28;20035;-77
2024/03/03 12:17:48;;;;;;;1.85;0.40;;;16.50;56.80;;;;;;5056811;28;20056;-78
2024/03/03 12:20:16;;;;;;;0.20;0.20;;;16.50;58.70;;;;;;5055585;28;20028;-77
2024/03/03 12:22:42;;;;;;;0.45;0.40;;;16.40;58.30;;;;;;5056363;28;20035;-81
2024/03/03 12:25:09;;;;;;;0.45;0.38;;;16.40;58.60;;;;;;5056579;28;20089;-77
2024/03/03 12:27:36;;;;;;;0.20;0.20;;;16.30;58.80;;;;;;5056392;28;20033;-78
2024/03/03 12:30:05;;;;;;;0.35;0.35;;;16.30;58.30;;;;;;5056360;28;20057;-81
2024/03/03 12:32:31;;;;;;;0.25;0.20;;;16.30;54.60;;;;;;5058077;28;20391;-80
2024/03/03 12:34:56;;;;;;;0.40;0.40;;;16.20;54.10;;;;;;5056506;28;20021;-80
2024/03/03 12:37:25;;;;;;;0.30;0.30;;;16.20;55.40;;;;;;5057865;28;20029;-77
2024/03/03 12:39:54;;;;;;;0.38;0.30;;;16.20;55.30;;;;;;5056598;28;20016;-77
2024/03/03 12:42:21;;;;;;;3.50;0.38;;;16.20;53.60;;;;;;5055294;28;20071;-79